sensor_id;sensor_type;location;lat;lon;timestamp;temperature;humidity
3919;DHT22;1974;48.670;8.994;2023-07-02T00:01:51;17.20;99.90
3919;DHT22;1974;48.670;8.994;2023-07-02T00:04:18;17.10;99.90
3919;DHT22;1974;48.670;8.994;2023-07-02T00:06:46;17.10;99.90
3919;DHT22;1974;48.670;8.994;2023-07-02T00:09:14;17.20;99.90
3919;DHT22;1974;48.670;8.994;2023-07-02T00:11:43;17.20;99.90
3919;DHT22;1974;48.670;8.994;2023-07-02T00:14:11;17.20;99.90
3919;DHT22;1974;48.670;8.994;2023-07-02T00:16:41;17.20;99.90
3919;DHT22;1974;48.670;8.994;2023-07-02T00:19:10;17.20;99.90
3919;DHT22;1974;48.670;8.994;2023-07-02T00:21:36;17.20;99.90
3919;DHT22;1974;48.670;8.994;2023-07-02T00:24:05;17.20;99.90
3919;DHT22;1974;48.670;8.994;2023-07-02T00:26:32;17.10;99.90
3919;DHT22;1974;48.670;8.994;2023-07-02T00:28:59;17.10;99.90
3919;DHT22;1974;48.670;8.994;2023-07-02T00:31:26;17.10;99.90
3919;DHT22;1974;48.670;8.994;2023-07-02T00:33:52;17.10;99.90
3919;DHT22;1974;48.670;8.994;2023-07-02T00:36:20;17.20;99.90
3919;DHT22;1974;48.670;8.994;2023-07-02T00:38:48;17.20;99.90
3919;DHT22;1974;48.670;8.994;2023-07-02T00:41:15;17.20;99.90
3919;DHT22;1974;48.670;8.994;2023-07-02T00:43:42;17.20;99.90
3919;DHT22;1974;48.670;8.994;2023-07-02T00:46:11;17.20;99.90
3919;DHT22;1974;48.670;8.994;2023-07-02T00:48:43;17.10;99.90
3919;DHT22;1974;48.670;8.994;2023-07-02T00:51:11;17.20;99.90
3919;DHT22;1974;48.670;8.994;2023-07-02T00:53:40;17.20;99.90
3919;DHT22;1974;48.670;8.994;2023-07-02T00:56:07;17.20;99.90
3919;DHT22;1974;48.670;8.994;2023-07-02T00:58:38;17.20;99.90
3919;DHT22;1974;48.670;8.994;2023-07-02T01:01:05;17.20;99.90
3919;DHT22;1974;48.670;8.994;2023-07-02T01:03:32;17.20;99.90
3919;DHT22;1974;48.670;8.994;2023-07-02T01:06:03;17.20;99.90
3919;DHT22;1974;48.670;8.994;2023-07-02T01:08:29;17.20;99.90
3919;DHT22;1974;48.670;8.994;2023-07-02T01:10:58;17.20;99.90
3919;DHT22;1974;48.670;8.994;2023-07-02T01:13:26;17.20;99.90
3919;DHT22;1974;48.670;8.994;2023-07-02T01:15:53;17.10;99.90
3919;DHT22;1974;48.670;8.994;2023-07-02T01:18:20;17.10;99.90
3919;DHT22;1974;48.670;8.994;2023-07-02T01:20:49;17.00;99.90
3919;DHT22;1974;48.670;8.994;2023-07-02T01:23:16;17.00;99.90
3919;DHT22;1974;48.670;8.994;2023-07-02T01:25:43;17.00;99.90
3919;DHT22;1974;48.670;8.994;2023-07-02T01:28:10;17.00;99.90
3919;DHT22;1974;48.670;8.994;2023-07-02T01:30:39;16.90;99.90
3919;DHT22;1974;48.670;8.994;2023-07-02T01:33:06;16.90;99.90
3919;DHT22;1974;48.670;8.994;2023-07-02T01:35:32;16.80;99.90
3919;DHT22;1974;48.670;8.994;2023-07-02T01:38:00;16.80;99.90
3919;DHT22;1974;48.670;8.994;2023-07-02T01:40:27;16.70;99.90
3919;DHT22;1974;48.670;8.994;2023-07-02T01:42:54;16.70;99.90
3919;DHT22;1974;48.670;8.994;2023-07-02T01:45:20;16.60;99.90
3919;DHT22;1974;48.670;8.994;2023-07-02T01:47:48;16.60;99.90
3919;DHT22;1974;48.670;8.994;2023-07-02T01:50:14;16.60;99.90
3919;DHT22;1974;48.670;8.994;2023-07-02T01:52:41;16.50;99.90
3919;DHT22;1974;48.670;8.994;2023-07-02T01:55:09;16.50;99.90
3919;DHT22;1974;48.670;8.994;2023-07-02T01:57:36;16.50;99.90
3919;DHT22;1974;48.670;8.994;2023-07-02T02:00:04;16.50;99.90
3919;DHT22;1974;48.670;8.994;2023-07-02T02:02:32;16.50;99.90
3919;DHT22;1974;48.670;8.994;2023-07-02T02:04:59;16.50;99.90
3919;DHT22;1974;48.670;8.994;2023-07-02T02:07:27;16.60;99.90
3919;DHT22;1974;48.670;8.994;2023-07-02T02:09:53;16.60;99.90
3919;DHT22;1974;48.670;8.994;2023-07-02T02:12:21;16.60;99.90
3919;DHT22;1974;48.670;8.994;2023-07-02T02:14:48;16.60;99.90
3919;DHT22;1974;48.670;8.994;2023-07-02T02:17:15;16.70;99.90
3919;DHT22;1974;48.670;8.994;2023-07-02T02:19:42;16.70;99.90
3919;DHT22;1974;48.670;8.994;2023-07-02T02:22:08;16.70;99.90
3919;DHT22;1974;48.670;8.994;2023-07-02T02:24:35;16.80;99.90
3919;DHT22;1974;48.670;8.994;2023-07-02T02:27:02;16.80;99.90
3919;DHT22;1974;48.670;8.994;2023-07-02T02:29:30;16.80;99.90
3919;DHT22;1974;48.670;8.994;2023-07-02T02:31:57;16.90;99.90
3919;DHT22;1974;48.670;8.994;2023-07-02T02:34:24;16.90;99.90
3919;DHT22;1974;48.670;8.994;2023-07-02T02:36:50;16.90;99.90
3919;DHT22;1974;48.670;8.994;2023-07-02T02:39:17;16.90;99.90
3919;DHT22;1974;48.670;8.994;2023-07-02T02:41:44;16.90;99.90
3919;DHT22;1974;48.670;8.994;2023-07-02T02:44:11;16.90;99.90
3919;DHT22;1974;48.670;8.994;2023-07-02T02:46:39;17.00;99.90
3919;DHT22;1974;48.670;8.994;2023-07-02T02:49:05;17.00;99.90
3919;DHT22;1974;48.670;8.994;2023-07-02T02:51:32;17.00;99.90
3919;DHT22;1974;48.670;8.994;2023-07-02T02:53:59;16.90;99.90
3919;DHT22;1974;48.670;8.994;2023-07-02T02:56:26;17.00;99.90
3919;DHT22;1974;48.670;8.994;2023-07-02T02:58:52;17.00;99.90
3919;DHT22;1974;48.670;8.994;2023-07-02T03:01:19;17.00;99.90
3919;DHT22;1974;48.670;8.994;2023-07-02T03:03:47;17.00;99.90
3919;DHT22;1974;48.670;8.994;2023-07-02T03:06:14;17.00;99.90
3919;DHT22;1974;48.670;8.994;2023-07-02T03:08:41;16.90;99.90
3919;DHT22;1974;48.670;8.994;2023-07-02T03:11:08;16.80;99.90
3919;DHT22;1974;48.670;8.994;2023-07-02T03:13:35;16.70;99.90
3919;DHT22;1974;48.670;8.994;2023-07-02T03:16:01;16.50;99.90
3919;DHT22;1974;48.670;8.994;2023-07-02T03:18:28;16.30;99.90
3919;DHT22;1974;48.670;8.994;2023-07-02T03:20:56;16.20;99.90
3919;DHT22;1974;48.670;8.994;2023-07-02T03:23:23;16.10;99.90
3919;DHT22;1974;48.670;8.994;2023-07-02T03:25:49;16.00;99.90
3919;DHT22;1974;48.670;8.994;2023-07-02T03:28:16;15.90;99.90
3919;DHT22;1974;48.670;8.994;2023-07-02T03:30:43;15.70;99.90
3919;DHT22;1974;48.670;8.994;2023-07-02T03:33:10;15.70;99.90
3919;DHT22;1974;48.670;8.994;2023-07-02T03:35:36;15.60;99.90
3919;DHT22;1974;48.670;8.994;2023-07-02T03:38:05;15.60;99.90
3919;DHT22;1974;48.670;8.994;2023-07-02T03:40:32;15.60;99.90
3919;DHT22;1974;48.670;8.994;2023-07-02T03:42:59;15.50;99.90
3919;DHT22;1974;48.670;8.994;2023-07-02T03:45:25;15.50;99.90
3919;DHT22;1974;48.670;8.994;2023-07-02T03:47:52;15.50;99.90
3919;DHT22;1974;48.670;8.994;2023-07-02T03:50:19;15.40;99.90
3919;DHT22;1974;48.670;8.994;2023-07-02T03:52:46;15.40;99.90
3919;DHT22;1974;48.670;8.994;2023-07-02T03:55:14;15.30;99.90
3919;DHT22;1974;48.670;8.994;2023-07-02T03:57:41;15.30;99.90
3919;DHT22;1974;48.670;8.994;2023-07-02T04:00:08;15.30;99.90
3919;DHT22;1974;48.670;8.994;2023-07-02T04:02:36;15.30;99.90
3919;DHT22;1974;48.670;8.994;2023-07-02T04:05:04;15.30;99.90
3919;DHT22;1974;48.670;8.994;2023-07-02T04:07:31;15.20;99.90
3919;DHT22;1974;48.670;8.994;2023-07-02T04:09:57;15.20;99.90
3919;DHT22;1974;48.670;8.994;2023-07-02T04:12:25;15.20;99.90
3919;DHT22;1974;48.670;8.994;2023-07-02T04:14:52;15.20;99.90
3919;DHT22;1974;48.670;8.994;2023-07-02T04:17:19;15.20;99.90
3919;DHT22;1974;48.670;8.994;2023-07-02T04:19:46;15.20;99.90
3919;DHT22;1974;48.670;8.994;2023-07-02T04:22:12;15.10;99.90
3919;DHT22;1974;48.670;8.994;2023-07-02T04:24:39;15.20;99.90
3919;DHT22;1974;48.670;8.994;2023-07-02T04:27:06;15.20;99.90
3919;DHT22;1974;48.670;8.994;2023-07-02T04:29:34;15.20;99.90
3919;DHT22;1974;48.670;8.994;2023-07-02T04:32:01;15.20;99.90
3919;DHT22;1974;48.670;8.994;2023-07-02T04:34:28;15.20;99.90
3919;DHT22;1974;48.670;8.994;2023-07-02T04:36:54;15.20;99.90
3919;DHT22;1974;48.670;8.994;2023-07-02T04:39:21;15.20;99.90
3919;DHT22;1974;48.670;8.994;2023-07-02T04:41:48;15.30;99.90
3919;DHT22;1974;48.670;8.994;2023-07-02T04:44:18;15.30;99.90
3919;DHT22;1974;48.670;8.994;2023-07-02T04:46:47;15.40;99.90
3919;DHT22;1974;48.670;8.994;2023-07-02T04:49:14;15.40;99.90
3919;DHT22;1974;48.670;8.994;2023-07-02T04:51:41;15.40;99.90
3919;DHT22;1974;48.670;8.994;2023-07-02T04:54:08;15.50;99.90
3919;DHT22;1974;48.670;8.994;2023-07-02T04:56:34;15.50;99.90
3919;DHT22;1974;48.670;8.994;2023-07-02T04:59:01;15.50;99.90
3919;DHT22;1974;48.670;8.994;2023-07-02T05:01:28;15.60;99.90
3919;DHT22;1974;48.670;8.994;2023-07-02T05:03:56;15.60;99.90
3919;DHT22;1974;48.670;8.994;2023-07-02T05:06:23;15.60;99.90
3919;DHT22;1974;48.670;8.994;2023-07-02T05:08:50;15.60;99.90
3919;DHT22;1974;48.670;8.994;2023-07-02T05:11:18;15.70;99.90
3919;DHT22;1974;48.670;8.994;2023-07-02T05:13:45;15.70;99.90
3919;DHT22;1974;48.670;8.994;2023-07-02T05:16:11;15.80;99.90
3919;DHT22;1974;48.670;8.994;2023-07-02T05:18:38;15.70;99.90
3919;DHT22;1974;48.670;8.994;2023-07-02T05:21:07;15.70;99.90
3919;DHT22;1974;48.670;8.994;2023-07-02T05:23:33;15.80;99.90
3919;DHT22;1974;48.670;8.994;2023-07-02T05:26:01;15.70;99.90
3919;DHT22;1974;48.670;8.994;2023-07-02T05:28:27;15.70;99.90
3919;DHT22;1974;48.670;8.994;2023-07-02T05:30:55;15.70;99.90
3919;DHT22;1974;48.670;8.994;2023-07-02T05:33:21;15.70;99.90
3919;DHT22;1974;48.670;8.994;2023-07-02T05:35:48;15.80;99.90
3919;DHT22;1974;48.670;8.994;2023-07-02T05:38:17;16.00;99.90
3919;DHT22;1974;48.670;8.994;2023-07-02T05:40:44;16.10;99.90
3919;DHT22;1974;48.670;8.994;2023-07-02T05:43:11;16.10;99.90
3919;DHT22;1974;48.670;8.994;2023-07-02T05:45:38;16.10;99.90
3919;DHT22;1974;48.670;8.994;2023-07-02T05:48:05;16.10;99.90
3919;DHT22;1974;48.670;8.994;2023-07-02T05:50:31;16.30;99.90
3919;DHT22;1974;48.670;8.994;2023-07-02T05:52:58;16.40;99.90
3919;DHT22;1974;48.670;8.994;2023-07-02T05:55:26;16.60;99.90
3919;DHT22;1974;48.670;8.994;2023-07-02T05:57:53;16.70;99.90
3919;DHT22;1974;48.670;8.994;2023-07-02T06:00:20;16.90;99.90
3919;DHT22;1974;48.670;8.994;2023-07-02T06:02:47;17.10;99.90
3919;DHT22;1974;48.670;8.994;2023-07-02T06:05:14;17.10;99.90
3919;DHT22;1974;48.670;8.994;2023-07-02T06:07:40;17.30;99.90
3919;DHT22;1974;48.670;8.994;2023-07-02T06:10:08;17.40;99.90
3919;DHT22;1974;48.670;8.994;2023-07-02T06:12:36;17.50;99.90
3919;DHT22;1974;48.670;8.994;2023-07-02T06:15:03;17.60;99.90
3919;DHT22;1974;48.670;8.994;2023-07-02T06:17:30;17.70;99.90
3919;DHT22;1974;48.670;8.994;2023-07-02T06:19:57;17.70;99.90
3919;DHT22;1974;48.670;8.994;2023-07-02T06:22:24;17.70;99.90
3919;DHT22;1974;48.670;8.994;2023-07-02T06:24:51;17.90;99.90
3919;DHT22;1974;48.670;8.994;2023-07-02T06:27:17;17.90;99.90
3919;DHT22;1974;48.670;8.994;2023-07-02T06:29:45;17.90;99.90
3919;DHT22;1974;48.670;8.994;2023-07-02T06:32:12;18.00;99.90
3919;DHT22;1974;48.670;8.994;2023-07-02T06:34:39;18.00;99.90
3919;DHT22;1974;48.670;8.994;2023-07-02T06:37:06;18.00;99.90
3919;DHT22;1974;48.670;8.994;2023-07-02T06:39:32;18.00;99.90
3919;DHT22;1974;48.670;8.994;2023-07-02T06:41:59;18.00;99.90
3919;DHT22;1974;48.670;8.994;2023-07-02T06:44:26;18.00;99.90
3919;DHT22;1974;48.670;8.994;2023-07-02T06:46:54;18.00;99.90
3919;DHT22;1974;48.670;8.994;2023-07-02T06:49:21;18.00;99.90
3919;DHT22;1974;48.670;8.994;2023-07-02T06:51:48;18.10;99.90
3919;DHT22;1974;48.670;8.994;2023-07-02T06:54:14;18.20;99.90
3919;DHT22;1974;48.670;8.994;2023-07-02T06:56:41;18.20;99.90
3919;DHT22;1974;48.670;8.994;2023-07-02T06:59:08;18.30;99.90
3919;DHT22;1974;48.670;8.994;2023-07-02T07:01:34;18.40;99.90
3919;DHT22;1974;48.670;8.994;2023-07-02T07:04:03;18.60;99.90
3919;DHT22;1974;48.670;8.994;2023-07-02T07:06:30;18.70;99.90
3919;DHT22;1974;48.670;8.994;2023-07-02T07:08:56;18.60;99.90
3919;DHT22;1974;48.670;8.994;2023-07-02T07:11:23;18.60;99.90
3919;DHT22;1974;48.670;8.994;2023-07-02T07:13:50;18.70;99.90
3919;DHT22;1974;48.670;8.994;2023-07-02T07:16:17;18.70;99.90
3919;DHT22;1974;48.670;8.994;2023-07-02T07:18:44;18.80;99.90
3919;DHT22;1974;48.670;8.994;2023-07-02T07:21:12;18.80;99.90
3919;DHT22;1974;48.670;8.994;2023-07-02T07:23:39;18.90;99.90
3919;DHT22;1974;48.670;8.994;2023-07-02T07:26:06;19.10;99.90
3919;DHT22;1974;48.670;8.994;2023-07-02T07:28:33;19.10;99.90
3919;DHT22;1974;48.670;8.994;2023-07-02T07:31:00;19.10;99.90
3919;DHT22;1974;48.670;8.994;2023-07-02T07:33:26;19.20;99.90
3919;DHT22;1974;48.670;8.994;2023-07-02T07:35:53;19.30;99.90
3919;DHT22;1974;48.670;8.994;2023-07-02T07:38:21;19.50;99.90
3919;DHT22;1974;48.670;8.994;2023-07-02T07:40:48;19.80;99.90
3919;DHT22;1974;48.670;8.994;2023-07-02T07:43:14;20.00;99.90
3919;DHT22;1974;48.670;8.994;2023-07-02T07:45:41;20.30;99.90
3919;DHT22;1974;48.670;8.994;2023-07-02T07:48:08;20.60;99.90
3919;DHT22;1974;48.670;8.994;2023-07-02T07:50:35;20.70;99.90
3919;DHT22;1974;48.670;8.994;2023-07-02T07:53:02;20.80;99.90
3919;DHT22;1974;48.670;8.994;2023-07-02T07:55:30;21.10;99.90
3919;DHT22;1974;48.670;8.994;2023-07-02T07:57:56;21.30;99.90
3919;DHT22;1974;48.670;8.994;2023-07-02T08:00:23;21.40;99.90
3919;DHT22;1974;48.670;8.994;2023-07-02T08:02:51;21.30;99.90
3919;DHT22;1974;48.670;8.994;2023-07-02T08:05:21;21.30;99.90
3919;DHT22;1974;48.670;8.994;2023-07-02T08:07:48;21.50;99.90
3919;DHT22;1974;48.670;8.994;2023-07-02T08:10:15;21.80;99.90
3919;DHT22;1974;48.670;8.994;2023-07-02T08:12:43;22.00;99.90
3919;DHT22;1974;48.670;8.994;2023-07-02T08:15:11;22.30;99.90
3919;DHT22;1974;48.670;8.994;2023-07-02T08:17:38;22.40;99.90
3919;DHT22;1974;48.670;8.994;2023-07-02T08:20:05;22.30;99.90
3919;DHT22;1974;48.670;8.994;2023-07-02T08:22:35;22.30;99.90
3919;DHT22;1974;48.670;8.994;2023-07-02T08:25:02;22.60;99.90
3919;DHT22;1974;48.670;8.994;2023-07-02T08:27:29;22.50;99.90
3919;DHT22;1974;48.670;8.994;2023-07-02T08:29:57;22.30;99.90
3919;DHT22;1974;48.670;8.994;2023-07-02T08:32:24;22.30;99.90
3919;DHT22;1974;48.670;8.994;2023-07-02T08:34:51;22.20;99.90
3919;DHT22;1974;48.670;8.994;2023-07-02T08:37:18;22.30;99.90
3919;DHT22;1974;48.670;8.994;2023-07-02T08:39:44;22.50;99.90
3919;DHT22;1974;48.670;8.994;2023-07-02T08:42:11;22.70;99.90
3919;DHT22;1974;48.670;8.994;2023-07-02T08:44:38;23.00;99.90
3919;DHT22;1974;48.670;8.994;2023-07-02T08:47:07;23.20;99.90
3919;DHT22;1974;48.670;8.994;2023-07-02T08:49:34;23.20;99.90
3919;DHT22;1974;48.670;8.994;2023-07-02T08:52:01;23.30;99.90
3919;DHT22;1974;48.670;8.994;2023-07-02T08:54:28;23.20;99.90
3919;DHT22;1974;48.670;8.994;2023-07-02T08:56:55;23.10;99.90
3919;DHT22;1974;48.670;8.994;2023-07-02T08:59:22;23.10;99.90
3919;DHT22;1974;48.670;8.994;2023-07-02T09:01:51;23.20;99.90
3919;DHT22;1974;48.670;8.994;2023-07-02T09:04:22;23.20;99.90
3919;DHT22;1974;48.670;8.994;2023-07-02T09:06:50;23.00;99.90
3919;DHT22;1974;48.670;8.994;2023-07-02T09:09:17;23.20;99.90
3919;DHT22;1974;48.670;8.994;2023-07-02T09:11:48;23.30;99.90
3919;DHT22;1974;48.670;8.994;2023-07-02T09:14:24;23.40;99.90
3919;DHT22;1974;48.670;8.994;2023-07-02T09:17:02;23.50;99.90
3919;DHT22;1974;48.670;8.994;2023-07-02T09:19:30;23.50;99.90
3919;DHT22;1974;48.670;8.994;2023-07-02T09:21:58;23.50;99.90
3919;DHT22;1974;48.670;8.994;2023-07-02T09:24:27;23.30;99.90
3919;DHT22;1974;48.670;8.994;2023-07-02T09:26:55;23.30;99.90
3919;DHT22;1974;48.670;8.994;2023-07-02T09:29:23;23.30;99.90
3919;DHT22;1974;48.670;8.994;2023-07-02T09:31:51;23.40;99.90
3919;DHT22;1974;48.670;8.994;2023-07-02T09:34:18;23.50;99.90
3919;DHT22;1974;48.670;8.994;2023-07-02T09:36:46;23.40;99.90
3919;DHT22;1974;48.670;8.994;2023-07-02T09:39:13;23.20;99.90
3919;DHT22;1974;48.670;8.994;2023-07-02T09:41:41;22.80;99.90
3919;DHT22;1974;48.670;8.994;2023-07-02T09:44:08;22.60;99.90
3919;DHT22;1974;48.670;8.994;2023-07-02T09:46:37;22.60;99.90
3919;DHT22;1974;48.670;8.994;2023-07-02T09:49:06;22.70;99.90
3919;DHT22;1974;48.670;8.994;2023-07-02T09:51:36;22.90;99.90
3919;DHT22;1974;48.670;8.994;2023-07-02T09:54:05;23.00;99.90
3919;DHT22;1974;48.670;8.994;2023-07-02T09:56:32;23.00;99.90
3919;DHT22;1974;48.670;8.994;2023-07-02T09:58:59;23.20;99.90
3919;DHT22;1974;48.670;8.994;2023-07-02T10:01:26;23.30;99.90
3919;DHT22;1974;48.670;8.994;2023-07-02T10:03:52;23.30;99.90
3919;DHT22;1974;48.670;8.994;2023-07-02T10:06:19;23.20;99.90
3919;DHT22;1974;48.670;8.994;2023-07-02T10:08:53;23.30;99.90
3919;DHT22;1974;48.670;8.994;2023-07-02T10:11:33;23.40;99.90
3919;DHT22;1974;48.670;8.994;2023-07-02T10:14:00;23.60;99.90
3919;DHT22;1974;48.670;8.994;2023-07-02T10:16:27;23.70;99.90
3919;DHT22;1974;48.670;8.994;2023-07-02T10:19:08;23.60;99.90
3919;DHT22;1974;48.670;8.994;2023-07-02T10:21:34;23.70;99.90
3919;DHT22;1974;48.670;8.994;2023-07-02T10:24:09;23.70;99.90
3919;DHT22;1974;48.670;8.994;2023-07-02T10:26:38;23.70;99.90
3919;DHT22;1974;48.670;8.994;2023-07-02T10:29:06;23.80;99.90
3919;DHT22;1974;48.670;8.994;2023-07-02T10:31:33;23.90;99.90
3919;DHT22;1974;48.670;8.994;2023-07-02T10:33:59;24.00;99.90
3919;DHT22;1974;48.670;8.994;2023-07-02T10:36:26;24.10;99.90
3919;DHT22;1974;48.670;8.994;2023-07-02T10:38:53;24.10;99.90
3919;DHT22;1974;48.670;8.994;2023-07-02T10:41:24;24.10;99.70
3919;DHT22;1974;48.670;8.994;2023-07-02T10:43:52;24.30;99.20
3919;DHT22;1974;48.670;8.994;2023-07-02T10:46:20;24.10;97.60
3919;DHT22;1974;48.670;8.994;2023-07-02T10:48:53;24.10;98.50
3919;DHT22;1974;48.670;8.994;2023-07-02T10:51:20;24.30;98.90
3919;DHT22;1974;48.670;8.994;2023-07-02T10:53:56;24.40;97.50
3919;DHT22;1974;48.670;8.994;2023-07-02T10:56:24;24.40;98.30
3919;DHT22;1974;48.670;8.994;2023-07-02T10:58:52;24.20;96.80
3919;DHT22;1974;48.670;8.994;2023-07-02T11:01:24;24.30;97.70
3919;DHT22;1974;48.670;8.994;2023-07-02T11:03:58;24.50;97.70
3919;DHT22;1974;48.670;8.994;2023-07-02T11:06:25;24.70;96.40
3919;DHT22;1974;48.670;8.994;2023-07-02T11:08:52;24.80;96.10
3919;DHT22;1974;48.670;8.994;2023-07-02T11:11:21;24.90;95.60
3919;DHT22;1974;48.670;8.994;2023-07-02T11:13:49;24.80;94.40
3919;DHT22;1974;48.670;8.994;2023-07-02T11:16:22;24.60;94.80
3919;DHT22;1974;48.670;8.994;2023-07-02T11:18:51;24.30;95.40
3919;DHT22;1974;48.670;8.994;2023-07-02T11:21:18;24.10;94.50
3919;DHT22;1974;48.670;8.994;2023-07-02T11:23:45;24.00;95.70
3919;DHT22;1974;48.670;8.994;2023-07-02T11:26:11;24.00;95.40
3919;DHT22;1974;48.670;8.994;2023-07-02T11:28:49;24.10;95.70
3919;DHT22;1974;48.670;8.994;2023-07-02T11:31:27;24.20;94.80
3919;DHT22;1974;48.670;8.994;2023-07-02T11:33:54;24.40;94.70
3919;DHT22;1974;48.670;8.994;2023-07-02T11:36:22;24.50;94.40
3919;DHT22;1974;48.670;8.994;2023-07-02T11:38:50;24.60;93.60
3919;DHT22;1974;48.670;8.994;2023-07-02T11:41:17;24.70;93.60
3919;DHT22;1974;48.670;8.994;2023-07-02T11:43:44;24.70;93.70
3919;DHT22;1974;48.670;8.994;2023-07-02T11:46:11;24.70;92.00
3919;DHT22;1974;48.670;8.994;2023-07-02T11:48:39;24.60;92.50
3919;DHT22;1974;48.670;8.994;2023-07-02T11:51:05;24.50;92.70
3919;DHT22;1974;48.670;8.994;2023-07-02T11:53:32;24.60;92.40
3919;DHT22;1974;48.670;8.994;2023-07-02T11:55:59;24.60;92.80
3919;DHT22;1974;48.670;8.994;2023-07-02T11:58:26;24.50;92.60
3919;DHT22;1974;48.670;8.994;2023-07-02T12:00:53;24.60;93.30
3919;DHT22;1974;48.670;8.994;2023-07-02T12:03:20;24.60;92.50
3919;DHT22;1974;48.670;8.994;2023-07-02T12:05:48;24.40;91.90
3919;DHT22;1974;48.670;8.994;2023-07-02T12:08:15;24.30;92.00
3919;DHT22;1974;48.670;8.994;2023-07-02T12:10:42;24.40;92.50
3919;DHT22;1974;48.670;8.994;2023-07-02T12:13:09;24.30;91.40
3919;DHT22;1974;48.670;8.994;2023-07-02T12:15:35;24.30;92.30
3919;DHT22;1974;48.670;8.994;2023-07-02T12:18:02;24.30;91.60
3919;DHT22;1974;48.670;8.994;2023-07-02T12:20:29;24.10;90.60
3919;DHT22;1974;48.670;8.994;2023-07-02T12:22:57;24.00;90.50
3919;DHT22;1974;48.670;8.994;2023-07-02T12:25:24;24.00;92.00
3919;DHT22;1974;48.670;8.994;2023-07-02T12:27:51;24.10;91.40
3919;DHT22;1974;48.670;8.994;2023-07-02T12:30:18;24.10;90.90
3919;DHT22;1974;48.670;8.994;2023-07-02T12:32:46;24.10;91.50
3919;DHT22;1974;48.670;8.994;2023-07-02T12:35:13;24.10;91.70
3919;DHT22;1974;48.670;8.994;2023-07-02T12:37:44;24.20;89.80
3919;DHT22;1974;48.670;8.994;2023-07-02T12:40:12;24.20;90.40
3919;DHT22;1974;48.670;8.994;2023-07-02T12:42:40;24.20;90.20
3919;DHT22;1974;48.670;8.994;2023-07-02T12:45:08;24.10;90.30
3919;DHT22;1974;48.670;8.994;2023-07-02T12:47:35;24.10;88.80
3919;DHT22;1974;48.670;8.994;2023-07-02T12:50:01;24.00;86.70
3919;DHT22;1974;48.670;8.994;2023-07-02T12:52:29;24.00;86.70
3919;DHT22;1974;48.670;8.994;2023-07-02T12:54:56;23.90;85.90
3919;DHT22;1974;48.670;8.994;2023-07-02T12:57:24;23.80;87.80
3919;DHT22;1974;48.670;8.994;2023-07-02T12:59:51;23.90;85.70
3919;DHT22;1974;48.670;8.994;2023-07-02T13:02:18;23.70;84.00
3919;DHT22;1974;48.670;8.994;2023-07-02T13:04:45;23.70;85.70
3919;DHT22;1974;48.670;8.994;2023-07-02T13:07:12;23.60;88.60
3919;DHT22;1974;48.670;8.994;2023-07-02T13:09:38;23.70;87.20
3919;DHT22;1974;48.670;8.994;2023-07-02T13:12:06;23.60;84.80
3919;DHT22;1974;48.670;8.994;2023-07-02T13:14:34;23.70;83.70
3919;DHT22;1974;48.670;8.994;2023-07-02T13:17:01;23.70;85.70
3919;DHT22;1974;48.670;8.994;2023-07-02T13:19:28;23.60;85.50
3919;DHT22;1974;48.670;8.994;2023-07-02T13:21:55;23.60;86.20
3919;DHT22;1974;48.670;8.994;2023-07-02T13:24:22;23.50;84.10
3919;DHT22;1974;48.670;8.994;2023-07-02T13:26:49;23.40;84.00
3919;DHT22;1974;48.670;8.994;2023-07-02T13:29:15;23.30;86.40
3919;DHT22;1974;48.670;8.994;2023-07-02T13:31:44;23.40;87.90
3919;DHT22;1974;48.670;8.994;2023-07-02T13:34:10;23.40;86.80
3919;DHT22;1974;48.670;8.994;2023-07-02T13:36:37;23.40;86.30
3919;DHT22;1974;48.670;8.994;2023-07-02T13:39:04;23.50;87.90
3919;DHT22;1974;48.670;8.994;2023-07-02T13:41:31;23.40;86.50
3919;DHT22;1974;48.670;8.994;2023-07-02T13:43:59;23.40;86.60
3919;DHT22;1974;48.670;8.994;2023-07-02T13:46:26;23.40;86.70
3919;DHT22;1974;48.670;8.994;2023-07-02T13:48:54;23.40;86.60
3919;DHT22;1974;48.670;8.994;2023-07-02T13:51:20;23.40;85.80
3919;DHT22;1974;48.670;8.994;2023-07-02T13:53:47;23.30;87.10
3919;DHT22;1974;48.670;8.994;2023-07-02T13:56:14;23.20;86.50
3919;DHT22;1974;48.670;8.994;2023-07-02T13:58:59;23.20;87.30
3919;DHT22;1974;48.670;8.994;2023-07-02T14:01:26;23.30;86.70
3919;DHT22;1974;48.670;8.994;2023-07-02T14:03:53;23.30;87.80
3919;DHT22;1974;48.670;8.994;2023-07-02T14:06:20;23.30;86.80
3919;DHT22;1974;48.670;8.994;2023-07-02T14:08:47;23.20;85.50
3919;DHT22;1974;48.670;8.994;2023-07-02T14:11:13;23.10;87.60
3919;DHT22;1974;48.670;8.994;2023-07-02T14:13:40;23.00;85.40
3919;DHT22;1974;48.670;8.994;2023-07-02T14:16:08;23.00;88.20
3919;DHT22;1974;48.670;8.994;2023-07-02T14:18:35;23.00;88.80
3919;DHT22;1974;48.670;8.994;2023-07-02T14:21:01;23.00;87.50
3919;DHT22;1974;48.670;8.994;2023-07-02T14:23:29;23.00;86.60
3919;DHT22;1974;48.670;8.994;2023-07-02T14:25:55;23.00;87.50
3919;DHT22;1974;48.670;8.994;2023-07-02T14:28:22;22.90;87.60
3919;DHT22;1974;48.670;8.994;2023-07-02T14:30:56;22.90;88.60
3919;DHT22;1974;48.670;8.994;2023-07-02T14:33:24;22.90;90.20
3919;DHT22;1974;48.670;8.994;2023-07-02T14:35:51;23.00;89.50
3919;DHT22;1974;48.670;8.994;2023-07-02T14:38:18;23.00;89.50
3919;DHT22;1974;48.670;8.994;2023-07-02T14:40:45;23.10;88.90
3919;DHT22;1974;48.670;8.994;2023-07-02T14:43:11;23.10;89.20
3919;DHT22;1974;48.670;8.994;2023-07-02T14:45:45;23.20;89.80
3919;DHT22;1974;48.670;8.994;2023-07-02T14:48:12;23.20;90.20
3919;DHT22;1974;48.670;8.994;2023-07-02T14:50:45;23.30;88.70
3919;DHT22;1974;48.670;8.994;2023-07-02T14:53:12;23.30;89.30
3919;DHT22;1974;48.670;8.994;2023-07-02T14:55:39;23.30;90.20
3919;DHT22;1974;48.670;8.994;2023-07-02T14:58:06;23.30;88.40
3919;DHT22;1974;48.670;8.994;2023-07-02T15:00:33;23.30;88.70
3919;DHT22;1974;48.670;8.994;2023-07-02T15:03:00;23.30;89.60
3919;DHT22;1974;48.670;8.994;2023-07-02T15:05:27;23.30;90.10
3919;DHT22;1974;48.670;8.994;2023-07-02T15:07:55;23.20;89.60
3919;DHT22;1974;48.670;8.994;2023-07-02T15:10:22;23.20;88.20
3919;DHT22;1974;48.670;8.994;2023-07-02T15:12:49;23.10;89.30
3919;DHT22;1974;48.670;8.994;2023-07-02T15:15:16;23.10;88.80
3919;DHT22;1974;48.670;8.994;2023-07-02T15:17:42;23.10;89.80
3919;DHT22;1974;48.670;8.994;2023-07-02T15:20:10;23.10;90.60
3919;DHT22;1974;48.670;8.994;2023-07-02T15:22:37;23.10;89.50
3919;DHT22;1974;48.670;8.994;2023-07-02T15:25:06;23.10;89.10
3919;DHT22;1974;48.670;8.994;2023-07-02T15:27:33;23.10;90.00
3919;DHT22;1974;48.670;8.994;2023-07-02T15:30:00;23.10;87.90
3919;DHT22;1974;48.670;8.994;2023-07-02T15:32:26;23.00;86.60
3919;DHT22;1974;48.670;8.994;2023-07-02T15:34:53;23.00;87.70
3919;DHT22;1974;48.670;8.994;2023-07-02T15:37:20;22.90;88.10
3919;DHT22;1974;48.670;8.994;2023-07-02T15:39:47;22.80;88.20
3919;DHT22;1974;48.670;8.994;2023-07-02T15:42:15;22.70;88.70
3919;DHT22;1974;48.670;8.994;2023-07-02T15:44:42;22.70;90.50
3919;DHT22;1974;48.670;8.994;2023-07-02T15:47:09;22.70;86.80
3919;DHT22;1974;48.670;8.994;2023-07-02T15:49:37;22.60;88.00
3919;DHT22;1974;48.670;8.994;2023-07-02T15:52:05;22.60;88.90
3919;DHT22;1974;48.670;8.994;2023-07-02T15:54:32;22.50;87.20
3919;DHT22;1974;48.670;8.994;2023-07-02T15:56:58;22.50;88.00
3919;DHT22;1974;48.670;8.994;2023-07-02T15:59:26;22.50;88.80
3919;DHT22;1974;48.670;8.994;2023-07-02T16:01:53;22.60;90.20
3919;DHT22;1974;48.670;8.994;2023-07-02T16:04:20;22.60;90.10